Time;durP1;ratioP1;P1;durP2;ratioP2;P2;SDS_P1;SDS_P2;PMS_P1;PMS_P2;Temp;Humidity;BMP_temperature;BMP_pressure;BME280_temperature;BME280_humidity;BME280_pressure;Samples;Min_cycle;Max_cycle;Signal;HPM_P1;HPM_P2
2022/09/16 00:00:16;;;;;;;3.25;0.20;;;;;;;8.73;56.20;100619.03;5011267;28;20034;-78
2022/09/16 00:02:42;;;;;;;2.92;0.45;;;;;;;8.61;56.66;100624.66;5007472;28;20049;-76
2022/09/16 00:05:08;;;;;;;0.30;0.10;;;;;;;8.66;57.18;100625.34;4994087;28;20038;-76
2022/09/16 00:07:34;;;;;;;2.83;0.10;;;;;;;8.70;57.01;100643.41;4994941;28;20108;-77
2022/09/16 00:09:59;;;;;;;1.42;0.47;;;;;;;8.69;57.73;100649.50;4993816;28;20093;-76
2022/09/16 00:12:25;;;;;;;4.88;0.50;;;;;;;8.51;58.46;100630.16;4985098;28;20515;-76
2022/09/16 00:14:52;;;;;;;0.88;0.17;;;;;;;8.63;58.18;100636.72;5002390;28;20513;-75
2022/09/16 00:17:18;;;;;;;13.05;0.85;;;;;;;8.68;57.69;100633.97;4991033;28;20097;-76
2022/09/16 00:19:43;;;;;;;5.88;0.55;;;;;;;8.82;57.46;100629.13;4996396;28;20121;-76
2022/09/16 00:22:09;;;;;;;2.20;0.20;;;;;;;8.80;57.06;100633.53;5005778;28;20651;-74
2022/09/16 00:24:34;;;;;;;4.32;0.28;;;;;;;8.52;58.23;100631.88;4986196;28;20471;-76
2022/09/16 00:27:00;;;;;;;7.18;0.60;;;;;;;8.48;57.79;100622.47;5020228;28;20038;-76
2022/09/16 00:29:25;;;;;;;4.15;0.20;;;;;;;8.49;57.70;100624.16;5006004;28;20030;-76
2022/09/16 00:31:51;;;;;;;1.38;0.35;;;;;;;8.44;57.81;100627.84;4986049;28;20042;-76
2022/09/16 00:34:16;;;;;;;5.95;1.15;;;;;;;8.37;58.09;100627.22;4988425;28;20046;-77
2022/09/16 00:36:41;;;;;;;6.72;1.17;;;;;;;8.39;58.19;100624.56;5007376;28;20053;-76
2022/09/16 00:39:07;;;;;;;2.33;0.77;;;;;;;8.30;58.33;100616.16;4989602;28;20060;-78
2022/09/16 00:41:32;;;;;;;6.70;0.32;;;;;;;8.37;58.15;100622.00;4993419;28;20037;-77
2022/09/16 00:44:00;;;;;;;6.05;0.80;;;;;;;8.45;58.06;100614.78;4994185;28;20040;-76
2022/09/16 00:46:34;;;;;;;7.78;0.35;;;;;;;8.44;58.47;100618.28;4987047;28;20037;-78
2022/09/16 00:49:05;;;;;;;2.90;0.10;;;;;;;8.60;58.37;100623.78;5025888;28;20038;-75
2022/09/16 00:51:32;;;;;;;3.72;0.30;;;;;;;8.61;58.15;100632.47;4992423;28;20553;-77
2022/09/16 00:54:02;;;;;;;3.35;0.88;;;;;;;8.61;58.11;100635.09;5009645;28;20530;-78
2022/09/16 00:56:31;;;;;;;3.13;0.30;;;;;;;8.44;58.38;100633.06;5006316;28;20129;-76
2022/09/16 00:59:15;;;;;;;3.70;0.38;;;;;;;8.50;58.19;100632.84;4989793;28;20065;-76
2022/09/16 01:01:43;;;;;;;3.80;0.30;;;;;;;8.64;58.01;100624.53;5005736;28;20102;-77
2022/09/16 01:04:17;;;;;;;5.38;0.25;;;;;;;8.55;58.43;100660.44;5003950;28;20686;-77
2022/09/16 01:06:43;;;;;;;3.67;0.20;;;;;;;8.62;57.88;100662.81;4986200;28;20041;-76
2022/09/16 01:09:08;;;;;;;1.63;0.17;;;;;;;8.27;59.35;100657.06;5004652;28;20026;-76
2022/09/16 01:11:34;;;;;;;9.45;0.55;;;;;;;8.37;59.47;100648.03;4986221;28;20041;-79
2022/09/16 01:17:07;;;;;;;1.45;0.20;;;;;;;8.50;58.67;100644.13;5005968;28;20045;-77
2022/09/16 01:19:57;;;;;;;3.10;1.05;;;;;;;8.65;57.77;100631.44;4991059;28;20034;-76
2022/09/16 01:22:50;;;;;;;2.08;0.20;;;;;;;8.77;57.99;100631.03;5003591;28;20066;-77
2022/09/16 01:25:35;;;;;;;2.13;0.20;;;;;;;8.73;57.91;100638.09;4986927;28;20065;-76
2022/09/16 01:28:15;;;;;;;1.40;0.10;;;;;;;8.76;58.26;100639.75;5002767;28;20399;-76
2022/09/16 01:30:54;;;;;;;2.72;0.50;;;;;;;8.65;58.37;100636.66;5008759;28;20030;-77
2022/09/16 01:33:19;;;;;;;0.93;0.20;;;;;;;8.64;58.05;100635.81;4984389;28;20265;-77
2022/09/16 01:36:00;;;;;;;2.60;0.20;;;;;;;8.66;58.28;100627.94;4995029;28;20050;-76
2022/09/16 01:38:53;;;;;;;4.05;0.20;;;;;;;8.78;57.60;100627.50;4989009;28;20458;-75
2022/09/16 01:41:54;;;;;;;2.20;0.10;;;;;;;8.53;58.08;100617.94;4990031;28;20038;-74
2022/09/16 01:44:33;;;;;;;0.73;0.30;;;;;;;8.57;57.49;100622.16;4991682;28;20091;-75
2022/09/16 01:47:10;;;;;;;2.72;0.30;;;;;;;8.58;57.50;100625.59;4989880;28;20523;-78
2022/09/16 01:49:56;;;;;;;4.90;0.93;;;;;;;8.30;58.08;100623.13;5004158;28;20037;-77
2022/09/16 01:52:38;;;;;;;3.17;0.20;;;;;;;8.34;57.81;100614.31;5000759;28;20257;-77
2022/09/16 01:55:08;;;;;;;4.05;0.20;;;;;;;8.28;58.01;100620.56;5003089;28;20034;-74
2022/09/16 01:57:47;;;;;;;3.95;0.43;;;;;;;8.41;57.98;100618.41;5001572;28;20045;-76
2022/09/16 02:00:13;;;;;;;1.20;0.35;;;;;;;8.41;58.27;100625.38;5016600;28;20072;-77
2022/09/16 02:02:42;;;;;;;8.30;0.15;;;;;;;8.32;58.66;100621.31;5018288;28;20070;-77
2022/09/16 02:05:14;;;;;;;0.93;0.13;;;;;;;8.35;58.54;100623.81;5001922;28;20659;-76
2022/09/16 02:07:46;;;;;;;7.47;0.63;;;;;;;8.17;58.98;100624.44;5005131;28;20741;-77
2022/09/16 02:10:32;;;;;;;;;;;;;;;8.31;58.70;100622.22;5009225;28;20104;-78
2022/09/16 02:13:04;;;;;;;4.80;0.30;;;;;;;8.30;58.86;100625.72;5003652;28;19944;-76
2022/09/16 02:15:32;;;;;;;1.65;0.20;;;;;;;8.34;58.83;100632.53;5004481;28;20743;-75
2022/09/16 02:18:11;;;;;;;4.25;0.20;;;;;;;8.53;57.97;100630.13;5022579;28;20045;-76
2022/09/16 02:20:41;;;;;;;3.20;0.20;;;;;;;8.65;57.61;100621.03;5021725;28;20026;-76
2022/09/16 02:23:32;;;;;;;3.75;0.20;;;;;;;8.71;57.72;100613.03;4996724;28;20057;-75
2022/09/16 02:26:00;;;;;;;4.53;0.17;;;;;;;8.66;57.39;100607.94;4987979;28;20045;-76
2022/09/16 02:28:33;;;;;;;5.68;1.30;;;;;;;8.51;58.02;100613.69;4985983;28;20038;-75
2022/09/16 02:31:04;;;;;;;1.60;0.38;;;;;;;8.66;57.70;100602.72;5006299;28;20129;-77
2022/09/16 02:33:34;;;;;;;4.80;0.20;;;;;;;8.80;57.39;100599.66;4981996;28;20046;-76
2022/09/16 02:36:02;;;;;;;1.67;0.15;;;;;;;8.87;56.85;100595.91;4981539;28;20033;-76
2022/09/16 02:38:44;;;;;;;4.13;0.35;;;;;;;8.76;56.75;100598.94;4978935;28;20074;-75
2022/09/16 02:41:13;;;;;;;6.07;0.85;;;;;;;8.60;56.75;100602.09;4989273;28;20038;-76
2022/09/16 02:43:41;;;;;;;3.60;0.35;;;;;;;8.40;56.98;100601.06;5000309;28;20041;-75
2022/09/16 02:46:27;;;;;;;6.32;0.50;;;;;;;8.29;57.38;100608.38;5002243;28;20032;-76
2022/09/16 02:49:08;;;;;;;4.40;0.30;;;;;;;8.20;57.78;100603.50;4999702;28;20592;-76
2022/09/16 02:52:13;;;;;;;2.92;0.20;;;;;;;7.74;59.31;100614.56;4996838;28;20034;-76
2022/09/16 02:54:51;;;;;;;3.15;0.28;;;;;;;8.10;58.75;100624.66;4966202;28;20073;-76
2022/09/16 02:57:17;;;;;;;8.30;0.35;;;;;;;7.82;59.40;100623.84;4997389;28;20065;-76
2022/09/16 02:59:43;;;;;;;1.20;0.20;;;;;;;8.27;58.24;100623.22;4987807;28;20038;-76
2022/09/16 03:02:10;;;;;;;3.60;0.55;;;;;;;8.15;58.47;100612.31;4981323;28;20046;-75
2022/09/16 03:04:35;;;;;;;5.57;0.20;;;;;;;8.30;58.25;100618.75;4985086;28;20034;-76
2022/09/16 03:07:08;;;;;;;4.45;0.40;;;;;;;8.46;58.05;100616.47;4988937;28;20141;-74
2022/09/16 03:09:41;;;;;;;10.75;0.52;;;;;;;8.28;58.01;100612.75;4986112;28;20019;-76
2022/09/16 03:12:22;;;;;;;6.47;0.40;;;;;;;8.48;57.48;100606.84;4981889;28;20050;-76
2022/09/16 03:15:13;;;;;;;5.90;0.32;;;;;;;8.43;57.15;100600.13;4999144;28;20041;-76
2022/09/16 03:17:56;;;;;;;5.53;0.40;;;;;;;8.43;56.83;100606.16;4985314;28;20042;-77
2022/09/16 03:20:49;;;;;;;6.35;0.32;;;;;;;8.24;56.97;100599.91;4988239;28;20654;-77
2022/09/16 03:23:28;;;;;;;5.03;0.20;;;;;;;8.34;56.86;100603.91;4979115;28;20096;-77
2022/09/16 03:26:03;;;;;;;3.92;0.20;;;;;;;8.28;56.85;100602.34;4998329;28;20040;-76
2022/09/16 03:29:23;;;;;;;5.22;0.35;;;;;;;8.27;56.62;100604.97;4988720;28;20125;-77
2022/09/16 03:32:11;;;;;;;3.83;0.20;;;;;;;8.28;56.56;100601.50;4939683;29;20291;-76
2022/09/16 03:34:51;;;;;;;3.40;0.15;;;;;;;8.21;56.69;100595.66;5000943;28;20042;-76
2022/09/16 03:37:18;;;;;;;4.35;0.50;;;;;;;8.27;56.70;100594.56;5002967;28;20041;-76
2022/09/16 03:39:53;;;;;;;2.78;0.17;;;;;;;8.24;56.04;100586.88;5004600;28;20073;-76
2022/09/16 03:42:19;;;;;;;8.40;0.43;;;;;;;8.14;56.01;100587.19;4981074;28;20038;-77
2022/09/16 03:44:45;;;;;;;3.88;0.20;;;;;;;8.06;56.09;100596.16;4983791;28;20057;-74
2022/09/16 03:47:11;;;;;;;2.90;0.10;;;;;;;7.99;56.40;100590.31;5002037;28;20519;-76
2022/09/16 03:49:37;;;;;;;4.78;0.22;;;;;;;8.03;56.93;100589.31;4982162;28;20125;-75
2022/09/16 03:52:07;;;;;;;9.25;0.70;;;;;;;8.16;57.26;100594.97;5003819;28;20088;-76
2022/09/16 03:54:34;;;;;;;9.18;0.50;;;;;;;8.30;57.14;100608.34;4991150;28;20030;-77
2022/09/16 03:57:00;;;;;;;3.58;0.30;;;;;;;8.24;56.37;100605.09;5018355;28;20054;-76
2022/09/16 03:59:26;;;;;;;6.78;0.20;;;;;;;8.34;56.37;100598.69;4986989;28;20041;-75
2022/09/16 04:01:52;;;;;;;7.28;0.20;;;;;;;8.41;55.65;100591.50;4986738;28;20161;-75
2022/09/16 04:04:17;;;;;;;5.25;0.40;;;;;;;8.55;54.84;100589.25;5004082;28;20071;-75
2022/09/16 04:06:43;;;;;;;7.15;0.40;;;;;;;8.62;54.83;100584.66;4986357;28;20042;-75
2022/09/16 04:09:12;;;;;;;6.47;0.70;;;;;;;8.48;55.14;100617.28;4997356;28;20030;-75
2022/09/16 04:11:40;;;;;;;13.35;0.40;;;;;;;8.05;55.93;100589.28;4984186;28;20139;-77
2022/09/16 04:14:06;;;;;;;5.60;0.28;;;;;;;8.10;55.08;100592.56;5002954;28;20022;-75
2022/09/16 04:16:32;;;;;;;7.22;0.40;;;;;;;8.31;54.73;100586.59;4988006;28;20080;-76
2022/09/16 04:18:58;;;;;;;5.90;0.43;;;;;;;8.52;54.33;100589.38;4983479;28;20209;-76
2022/09/16 04:21:24;;;;;;;4.28;0.20;;;;;;;8.72;53.73;100586.91;5000876;28;20491;-76
2022/09/16 04:23:50;;;;;;;4.43;0.30;;;;;;;8.76;53.79;100577.22;4984233;28;20422;-76
2022/09/16 04:26:16;;;;;;;4.00;0.40;;;;;;;8.76;54.09;100582.41;4986992;28;20076;-77
2022/09/16 04:28:42;;;;;;;2.10;0.30;;;;;;;8.75;53.86;100586.78;5016196;28;20639;-74
2022/09/16 04:31:13;;;;;;;1.35;0.13;;;;;;;8.73;54.01;100578.19;4988905;28;20046;-76
2022/09/16 04:33:39;;;;;;;2.28;0.10;;;;;;;8.59;54.22;100590.00;5015738;28;20058;-77
2022/09/16 04:36:11;;;;;;;4.88;0.73;;;;;;;8.41;55.12;100587.13;4985939;28;20034;-77
2022/09/16 04:38:36;;;;;;;;;;;;;;;8.45;55.35;100588.75;4990141;28;20042;-76
2022/09/16 04:41:11;;;;;;;1.17;0.10;;;;;;;8.59;55.18;100584.78;5003278;28;19924;-76
2022/09/16 04:43:37;;;;;;;6.68;0.28;;;;;;;8.55;55.10;100584.88;5003103;28;20034;-76
2022/09/16 04:46:04;;;;;;;5.88;0.25;;;;;;;8.55;55.16;100577.06;5005172;28;20394;-76
2022/09/16 04:48:30;;;;;;;6.45;0.45;;;;;;;8.55;54.96;100568.41;4981656;28;20038;-78
2022/09/16 04:51:03;;;;;;;3.38;0.63;;;;;;;8.48;54.97;100577.34;5001698;28;20613;-74
2022/09/16 04:53:28;;;;;;;8.35;0.22;;;;;;;8.35;55.41;100576.94;5002969;28;20046;-76
2022/09/16 04:56:01;;;;;;;10.00;0.20;;;;;;;8.37;55.24;100569.91;4986355;28;20575;-75
2022/09/16 04:58:28;;;;;;;3.03;0.45;;;;;;;8.32;55.82;100564.88;4998920;28;20573;-75
2022/09/16 05:00:53;;;;;;;7.28;0.50;;;;;;;8.36;55.25;100568.25;4987814;28;20042;-77
2022/09/16 05:03:19;;;;;;;3.75;0.35;;;;;;;8.44;55.25;100566.19;5002298;28;20096;-77
2022/09/16 05:05:44;;;;;;;7.18;0.15;;;;;;;8.32;55.95;100559.66;4984963;28;20636;-76
2022/09/16 05:08:10;;;;;;;4.18;0.35;;;;;;;8.32;55.87;100561.44;4988844;28;20583;-75
2022/09/16 05:10:35;;;;;;;2.78;0.22;;;;;;;8.33;55.14;100560.50;5003831;28;20032;-76
2022/09/16 05:13:01;;;;;;;5.10;0.55;;;;;;;8.36;55.35;100560.44;4986940;28;20559;-76
2022/09/16 05:15:27;;;;;;;10.18;0.57;;;;;;;8.27;55.38;100559.00;4984734;28;20025;-76
2022/09/16 05:17:52;;;;;;;1.05;0.20;;;;;;;8.25;55.70;100559.94;5001522;28;20061;-78
2022/09/16 05:20:18;;;;;;;3.33;0.10;;;;;;;8.33;55.39;100558.75;5001461;28;20450;-77
2022/09/16 05:22:43;;;;;;;4.10;0.10;;;;;;;8.43;55.34;100563.66;4988837;28;20639;-77
2022/09/16 05:25:09;;;;;;;5.25;0.20;;;;;;;8.47;55.23;100558.28;5005221;28;20044;-77
2022/09/16 05:27:35;;;;;;;4.82;0.85;;;;;;;8.43;55.35;100564.50;4990769;28;20076;-77
2022/09/16 05:30:00;;;;;;;7.50;1.17;;;;;;;8.50;55.38;100570.34;4987429;28;20033;-77
2022/09/16 05:32:26;;;;;;;8.10;0.20;;;;;;;8.59;55.31;100551.75;4998855;28;20056;-77
2022/09/16 05:34:51;;;;;;;2.80;0.20;;;;;;;8.68;55.15;100556.63;5006621;28;20529;-77
2022/09/16 05:37:17;;;;;;;6.13;0.40;;;;;;;8.79;55.07;100556.28;4985081;28;20550;-78
2022/09/16 05:39:43;;;;;;;6.53;0.10;;;;;;;8.70;55.14;100556.59;5006007;28;20666;-77
2022/09/16 05:42:09;;;;;;;3.65;0.65;;;;;;;8.90;54.90;100559.31;4985466;28;20057;-75
2022/09/16 05:44:35;;;;;;;2.60;0.10;;;;;;;8.98;54.93;100559.88;5006114;28;20033;-78
2022/09/16 05:47:01;;;;;;;4.05;0.25;;;;;;;9.20;54.54;100564.25;4987381;28;20042;-77
2022/09/16 05:49:27;;;;;;;2.72;0.20;;;;;;;9.56;53.22;100563.69;5000027;28;20034;-78
2022/09/16 05:51:53;;;;;;;8.48;0.38;;;;;;;9.02;53.50;100562.38;4989671;28;20137;-77
2022/09/16 05:54:19;;;;;;;1.38;0.13;;;;;;;9.62;52.03;100563.44;5019535;28;20089;-76
2022/09/16 05:56:46;;;;;;;3.55;0.65;;;;;;;9.80;52.17;100559.25;5003175;28;20030;-76
2022/09/16 05:59:13;;;;;;;2.90;0.45;;;;;;;10.02;50.95;100551.38;4988338;28;20045;-78
2022/09/16 06:01:39;;;;;;;6.07;0.40;;;;;;;10.10;50.95;100549.28;4992143;28;20041;-76
2022/09/16 06:04:07;;;;;;;7.80;0.32;;;;;;;10.18;49.81;100548.94;4990757;28;20045;-78
2022/09/16 06:06:38;;;;;;;4.78;0.30;;;;;;;9.75;51.15;100555.97;5006052;28;20423;-77
2022/09/16 06:09:06;;;;;;;7.17;0.47;;;;;;;9.61;51.48;100553.94;4999495;28;20498;-77
2022/09/16 06:11:36;;;;;;;10.82;0.32;;;;;;;10.75;50.67;100551.63;4984382;28;20089;-77
2022/09/16 06:14:01;;;;;;;3.20;0.30;;;;;;;13.23;46.77;100548.69;5016389;28;20034;-77
2022/09/16 06:16:31;;;;;;;8.85;0.38;;;;;;;15.13;39.49;100546.91;5009117;28;20042;-76
2022/09/16 06:18:59;;;;;;;5.47;0.35;;;;;;;16.03;37.29;100541.06;5008564;28;20053;-76
2022/09/16 06:21:24;;;;;;;4.93;0.30;;;;;;;17.18;35.09;100541.72;4996069;28;20033;-77
2022/09/16 06:23:50;;;;;;;4.82;0.30;;;;;;;17.75;34.08;100536.66;4994456;28;20058;-76
2022/09/16 06:26:20;;;;;;;6.63;0.28;;;;;;;18.63;32.12;100533.38;4991802;28;20105;-77
2022/09/16 06:28:46;;;;;;;5.60;0.40;;;;;;;18.80;32.18;100543.47;4986405;28;20427;-79
2022/09/16 06:31:19;;;;;;;5.53;0.20;;;;;;;19.50;29.43;100536.03;5003475;28;20038;-79
2022/09/16 06:33:45;;;;;;;7.35;0.32;;;;;;;17.92;33.31;100530.94;4990794;28;20332;-79
2022/09/16 06:36:17;;;;;;;6.65;0.20;;;;;;;15.49;37.92;100548.13;4997655;28;20033;-80
2022/09/16 06:38:44;;;;;;;2.25;0.20;;;;;;;13.44;40.27;100543.13;4995759;28;20057;-81
2022/09/16 06:41:10;;;;;;;5.50;0.28;;;;;;;13.25;42.29;100535.44;4993216;28;20025;-78
2022/09/16 06:43:38;;;;;;;3.17;0.20;;;;;;;15.97;39.67;100542.28;5005629;28;20061;-78
2022/09/16 06:46:12;;;;;;;6.18;0.20;;;;;;;17.87;33.54;100530.44;4998832;28;20038;-80
2022/09/16 06:48:39;;;;;;;2.25;0.25;;;;;;;19.82;31.34;100529.91;5012605;28;20052;-80
2022/09/16 06:51:10;;;;;;;5.85;0.20;;;;;;;19.34;31.92;100519.75;4998327;28;20090;-79
2022/09/16 06:53:36;;;;;;;3.23;0.30;;;;;;;19.91;29.71;100529.09;4993812;28;20042;-80
2022/09/16 06:56:07;;;;;;;7.78;0.40;;;;;;;19.34;29.45;100523.22;4986597;28;20513;-80
2022/09/16 06:58:33;;;;;;;6.83;0.40;;;;;;;19.99;30.28;100526.63;5002869;28;20427;-78
2022/09/16 07:01:06;;;;;;;3.42;0.90;;;;;;;20.71;28.04;100517.72;4989479;28;20046;-80
2022/09/16 07:03:33;;;;;;;3.40;0.38;;;;;;;20.98;28.79;100518.09;4986275;28;20097;-80
2022/09/16 07:06:02;;;;;;;4.07;0.43;;;;;;;21.65;29.03;100522.56;4990969;28;20041;-75
2022/09/16 07:08:30;;;;;;;5.15;0.40;;;;;;;21.17;27.81;100522.56;5007606;28;20058;-76
2022/09/16 07:11:11;;;;;;;6.28;0.22;;;;;;;20.67;29.61;100521.63;5025231;28;20037;-78
2022/09/16 07:13:37;;;;;;;2.90;0.40;;;;;;;22.23;26.44;100515.44;5024093;28;20046;-77
2022/09/16 07:16:08;;;;;;;3.88;0.30;;;;;;;22.12;28.33;100519.94;5002449;28;20536;-78
2022/09/16 07:18:34;;;;;;;4.85;0.60;;;;;;;22.71;25.32;100515.19;5013398;28;20054;-76
2022/09/16 07:21:04;;;;;;;4.13;0.60;;;;;;;23.79;24.33;100518.69;5003469;28;20459;-75
2022/09/16 07:23:34;;;;;;;6.60;0.75;;;;;;;21.51;26.83;100523.00;4998708;28;20038;-78
2022/09/16 07:26:09;;;;;;;3.15;0.38;;;;;;;19.12;29.85;100518.00;5002202;28;20041;-76
2022/09/16 07:28:36;;;;;;;6.55;0.60;;;;;;;16.33;33.68;100533.69;4979426;28;20046;-78
2022/09/16 07:31:04;;;;;;;8.95;0.43;;;;;;;16.60;32.53;100528.25;5005032;28;20041;-77
2022/09/16 07:33:32;;;;;;;6.28;0.77;;;;;;;17.57;30.70;100531.81;5017388;28;20050;-76
2022/09/16 07:36:01;;;;;;;6.85;0.40;;;;;;;17.34;32.80;100535.31;5016332;28;20319;-76
2022/09/16 07:38:28;;;;;;;4.25;0.20;;;;;;;18.45;29.51;100523.31;4988901;28;20034;-77
2022/09/16 07:40:54;;;;;;;9.50;0.50;;;;;;;16.25;32.79;100530.72;4996525;28;20044;-75
2022/09/16 07:43:41;;;;;;;6.25;0.73;;;;;;;15.46;33.74;100537.81;4991197;28;20049;-76
2022/09/16 07:46:12;;;;;;;7.45;2.25;;;;;;;15.47;34.86;100523.66;5030268;28;20045;-77
2022/09/16 07:48:39;;;;;;;9.30;0.50;;;;;;;15.25;34.74;100544.47;4980017;28;20118;-76
2022/09/16 07:51:09;;;;;;;6.07;0.45;;;;;;;14.85;34.30;100536.47;4990122;28;20072;-76
2022/09/16 07:53:35;;;;;;;5.28;0.28;;;;;;;15.41;34.71;100531.13;5019734;28;20049;-76
2022/09/16 07:56:11;;;;;;;5.10;0.20;;;;;;;15.99;31.24;100525.44;5010391;28;20039;-75
2022/09/16 07:58:38;;;;;;;4.57;0.10;;;;;;;15.45;33.22;100530.81;4991623;28;20061;-76
2022/09/16 08:01:06;;;;;;;3.75;0.30;;;;;;;15.24;34.58;100532.22;4993113;28;20140;-76
2022/09/16 08:03:36;;;;;;;9.02;0.40;;;;;;;15.19;34.10;100535.13;4983840;28;20311;-77
2022/09/16 08:06:07;;;;;;;6.28;0.30;;;;;;;17.98;30.14;100527.84;4987284;28;20053;-76
2022/09/16 08:08:33;;;;;;;2.72;0.25;;;;;;;20.13;28.04;100528.94;4982537;28;20049;-77
2022/09/16 08:11:00;;;;;;;4.32;0.20;;;;;;;20.94;26.87;100531.63;4973416;28;20073;-76
2022/09/16 08:13:28;;;;;;;3.92;0.20;;;;;;;20.06;27.00;100533.09;5002627;28;20041;-77
2022/09/16 08:15:58;;;;;;;2.85;0.20;;;;;;;16.68;31.39;100543.53;4998712;28;20053;-76
2022/09/16 08:18:23;;;;;;;3.15;0.38;;;;;;;16.54;33.78;100547.16;4984913;28;20073;-77
2022/09/16 08:20:49;;;;;;;5.30;0.82;;;;;;;17.88;30.49;100545.34;4987703;28;20253;-77
2022/09/16 08:23:15;;;;;;;1.33;0.10;;;;;;;16.29;32.07;100541.91;4985351;28;20034;-77
2022/09/16 08:25:41;;;;;;;3.75;0.32;;;;;;;16.26;31.05;100537.69;5009068;28;20388;-77
2022/09/16 08:28:15;;;;;;;1.92;0.50;;;;;;;17.85;31.11;100540.31;4986332;28;20125;-77
2022/09/16 08:30:42;;;;;;;3.83;0.30;;;;;;;18.10;28.29;100528.69;5021104;28;20494;-76
2022/09/16 08:33:09;;;;;;;3.75;0.20;;;;;;;18.38;28.09;100522.09;5003827;28;20087;-77
2022/09/16 08:35:35;;;;;;;3.85;0.17;;;;;;;20.40;27.39;100522.25;5017586;28;20037;-77
2022/09/16 08:38:01;;;;;;;4.05;0.70;;;;;;;19.58;27.26;100520.38;4976450;28;20051;-78
2022/09/16 08:40:33;;;;;;;4.72;0.43;;;;;;;20.02;27.16;100518.41;5025585;28;20100;-76
2022/09/16 08:42:59;;;;;;;3.47;0.38;;;;;;;19.33;30.38;100549.88;5009171;28;20046;-77
2022/09/16 08:45:43;;;;;;;1.85;0.20;;;;;;;;;;5010199;28;20049;-79
2022/09/16 08:48:57;;;;;;;4.40;0.10;;;;;;;13.28;39.00;100551.88;5010784;28;20041;-78
2022/09/16 08:51:30;;;;;;;5.05;0.25;;;;;;;11.55;44.39;100555.72;5013270;28;20034;-78
2022/09/16 08:54:01;;;;;;;6.45;1.33;;;;;;;11.80;44.73;100547.56;5008027;28;20177;-77
2022/09/16 08:56:30;;;;;;;6.53;0.40;;;;;;;12.63;43.85;100543.22;5001672;28;20038;-78
2022/09/16 08:59:00;;;;;;;8.68;0.65;;;;;;;13.37;42.94;100524.25;4988222;28;20103;-77
2022/09/16 09:01:35;;;;;;;7.38;0.73;;;;;;;13.46;43.25;100526.34;4998447;28;20398;-78
2022/09/16 09:04:01;;;;;;;6.22;0.73;;;;;;;14.28;40.93;100534.72;4993171;28;20530;-77
2022/09/16 09:06:40;;;;;;;4.03;0.30;;;;;;;14.15;41.83;100538.06;4999529;28;20053;-77
2022/09/16 09:09:35;;;;;;;7.47;0.40;;;;;;;12.36;43.12;100545.56;4991711;28;20042;-77
2022/09/16 09:12:19;;;;;;;7.95;0.70;;;;;;;13.72;43.72;100534.53;5013858;28;20049;-77
2022/09/16 09:14:51;;;;;;;7.03;0.45;;;;;;;14.02;39.52;100525.78;5015018;28;20147;-78
2022/09/16 09:17:51;;;;;;;6.28;0.45;;;;;;;14.80;36.92;100533.28;4994123;28;20381;-79
2022/09/16 09:20:44;;;;;;;8.85;0.60;;;;;;;15.11;36.64;100535.63;5011232;28;20042;-76
2022/09/16 09:23:31;;;;;;;1.85;0.28;;;;;;;15.29;36.11;100541.53;5012467;28;20037;-76
2022/09/16 09:26:34;;;;;;;5.60;0.73;;;;;;;13.96;38.59;100547.16;4986339;28;20058;-77
2022/09/16 09:29:18;;;;;;;4.03;0.30;;;;;;;13.82;39.13;100543.56;5009164;28;20096;-77
2022/09/16 09:31:47;;;;;;;3.88;0.63;;;;;;;14.22;38.20;100538.53;4986707;28;20116;-77
2022/09/16 09:34:19;;;;;;;4.43;0.65;;;;;;;14.72;37.59;100533.75;5013816;28;20088;-77
2022/09/16 09:37:10;;;;;;;4.32;0.20;;;;;;;14.36;38.28;100520.13;5008901;28;20037;-77
2022/09/16 09:40:03;;;;;;;5.72;1.35;;;;;;;13.61;39.26;100524.66;5014092;28;20017;-79
2022/09/16 09:42:57;;;;;;;1.73;0.10;;;;;;;13.84;38.44;100531.19;4998223;28;20140;-76
2022/09/16 09:45:31;;;;;;;4.68;0.20;;;;;;;13.05;37.73;100513.81;5016107;28;20026;-78
2022/09/16 09:48:03;;;;;;;3.50;0.32;;;;;;;13.04;38.22;100517.38;4991680;28;20029;-77
2022/09/16 09:50:43;;;;;;;3.90;0.55;;;;;;;12.51;39.29;100515.88;4996555;28;20023;-76
2022/09/16 09:53:51;;;;;;;6.22;0.20;;;;;;;14.12;36.74;100511.13;5010355;28;20526;-79
2022/09/16 09:56:29;;;;;;;5.53;0.30;;;;;;;14.07;37.00;100510.56;5009646;28;20091;-78
2022/09/16 09:59:16;;;;;;;3.30;0.20;;;;;;;14.30;35.76;100504.75;5000198;28;20046;-77
2022/09/16 10:01:42;;;;;;;4.50;1.55;;;;;;;14.52;35.75;100508.69;5000104;28;20600;-76
2022/09/16 10:04:14;;;;;;;10.93;1.30;;;;;;;14.33;36.60;100508.97;4995874;28;20040;-77
2022/09/16 10:06:42;;;;;;;7.60;0.65;;;;;;;13.59;37.45;100525.69;4954514;28;20045;-77
2022/09/16 10:09:12;;;;;;;3.75;0.10;;;;;;;12.27;38.44;100542.47;5012237;28;20020;-78
2022/09/16 10:11:51;;;;;;;2.30;0.13;;;;;;;12.08;39.73;100526.00;4995909;22;20045;-69
2022/09/16 10:14:31;;;;;;;6.65;0.30;;;;;;;12.87;40.46;100546.31;4977097;28;20064;-69
2022/09/16 10:17:01;;;;;;;8.07;0.45;;;;;;;13.36;42.49;100548.84;4987628;28;20800;-70
2022/09/16 10:19:31;;;;;;;4.05;0.40;;;;;;;13.16;43.64;100556.97;4996869;28;20089;-71
2022/09/16 10:22:21;;;;;;;4.40;0.25;;;;;;;11.52;47.43;100540.19;4990390;28;20387;-70
2022/09/16 10:24:54;;;;;;;6.47;0.77;;;;;;;11.51;48.11;100546.31;4997530;28;20449;-69
2022/09/16 10:27:27;;;;;;;5.45;1.08;;;;;;;11.50;48.29;100544.63;4976102;28;20049;-69
2022/09/16 10:30:21;;;;;;;8.60;0.88;;;;;;;11.24;49.25;100550.22;4998974;28;20026;-69
2022/09/16 10:33:22;;;;;;;3.97;0.43;;;;;;;11.73;47.72;100541.75;4971077;28;20498;-69
2022/09/16 10:36:08;;;;;;;7.28;1.35;;;;;;;12.28;47.58;100543.31;4998521;28;20065;-69
2022/09/16 10:39:02;;;;;;;;;;;;;;;;;;;;;
2022/09/16 10:41:32;;;;;;;8.23;1.60;;;;;;;13.97;44.78;100525.22;4995470;28;20507;-69
2022/09/16 10:44:14;;;;;;;8.85;0.60;;;;;;;14.18;42.91;100510.75;4969453;28;20041;-69
2022/09/16 10:47:17;;;;;;;4.63;0.82;;;;;;;14.98;41.96;100524.22;4981695;28;20034;-69
2022/09/16 10:49:49;;;;;;;5.00;0.47;;;;;;;15.32;41.08;100507.09;4986283;28;20022;-69
2022/09/16 10:55:37;;;;;;;7.45;0.55;;;;;;;14.98;38.12;100503.16;4994569;28;20037;-69
2022/09/16 10:58:36;;;;;;;4.72;0.40;;;;;;;15.04;37.59;100499.31;4951352;28;20133;-69
2022/09/16 11:01:12;;;;;;;9.15;0.65;;;;;;;14.47;36.77;100505.53;4995063;28;20558;-69
2022/09/16 11:03:55;;;;;;;5.78;0.55;;;;;;;14.24;37.49;100496.41;4992735;28;20447;-69
2022/09/16 11:07:06;;;;;;;3.88;0.40;;;;;;;15.38;34.42;100490.06;4996404;28;20030;-69
2022/09/16 11:10:04;;;;;;;6.10;0.68;;;;;;;16.06;32.62;100486.31;4996266;28;20041;-69
2022/09/16 11:13:17;;;;;;;4.75;0.50;;;;;;;16.78;32.01;100478.63;4997202;28;20500;-69
2022/09/16 11:15:45;;;;;;;3.53;0.20;;;;;;;17.21;31.61;100462.25;4994483;28;20061;-69
2022/09/16 11:18:22;;;;;;;3.13;0.30;;;;;;;16.52;32.27;100461.16;4960158;28;20045;-69
2022/09/16 11:21:14;;;;;;;4.85;0.40;;;;;;;15.29;33.61;100466.97;4994884;28;20048;-70
2022/09/16 11:23:57;;;;;;;6.93;0.47;;;;;;;15.54;33.82;100461.72;4984160;28;20477;-69
2022/09/16 11:27:02;;;;;;;6.35;0.68;;;;;;;14.81;36.27;100482.34;4993502;28;20112;-68
2022/09/16 11:29:37;;;;;;;19.75;2.13;;;;;;;13.20;40.98;100483.22;4975813;28;20038;-69
2022/09/16 11:32:39;;;;;;;8.05;1.65;;;;;;;13.33;42.73;100493.88;4993906;28;20045;-67
2022/09/16 11:35:42;;;;;;;8.68;1.30;;;;;;;12.73;43.01;100492.00;4989571;28;20034;-69
2022/09/16 11:38:26;;;;;;;9.40;1.17;;;;;;;12.58;44.89;100506.78;4967991;28;20038;-68
2022/09/16 11:40:58;;;;;;;9.85;0.90;;;;;;;12.34;46.18;100511.56;4985545;28;20073;-68
2022/09/16 11:43:37;;;;;;;12.38;0.93;;;;;;;11.53;48.13;100519.19;4947242;28;20128;-68
2022/09/16 11:46:13;;;;;;;10.30;0.88;;;;;;;11.40;49.27;100513.69;4993278;28;20029;-68
2022/09/16 11:49:02;;;;;;;10.80;1.15;;;;;;;11.09;50.36;100516.09;4986942;28;20038;-68
2022/09/16 11:51:49;;;;;;;16.27;1.65;;;;;;;10.86;50.82;100512.81;4994699;28;20522;-68
2022/09/16 11:54:37;;;;;;;11.35;1.23;;;;;;;11.07;50.60;100516.16;4991482;28;20042;-68
2022/09/16 11:57:12;;;;;;;11.25;0.95;;;;;;;11.46;50.93;100518.63;4993332;28;20069;-68
2022/09/16 11:59:57;;;;;;;8.90;1.17;;;;;;;11.29;50.47;100531.69;4994256;28;20036;-69
2022/09/16 12:02:30;;;;;;;6.72;1.15;;;;;;;11.43;50.69;100510.91;4995589;28;20038;-69
2022/09/16 12:05:25;;;;;;;10.38;0.65;;;;;;;11.04;51.78;100517.16;4996276;28;20041;-68
2022/09/16 12:08:12;;;;;;;6.43;0.70;;;;;;;10.78;51.78;100504.44;4991687;28;20550;-68